HNLMS Pelikaan — PAKU — position and weather

sailwx.info

Track history (hours):
 
Tides and Currents Weather Stations Pressure Air Temp Water Temp Dewpoint Dewpoint Depression Visibility Wind Speed Wind Dir Waves Ship Positions

HNLMS Pelikaan

Last reported at 2017-Oct-02 04:32 UTC. Time now 2017-Oct-17 13:12 UTC.
Position N 16°17' W 061°52'.
Warning: this ship's position is 15 days out of date.

Length 65 m.

Type: Military. MMSI: 244362000.

Date/timePositionNaut miles runAvg speedWind from/ knotsBaromVisibWave heightAir tempDewpointWater temp
2017-Oct-02 04:32N 16°17' W 061°52'2 8.2
2017-Oct-02 04:19N 16°19' W 061°52'310.7
2017-Oct-02 04:01N 16°22' W 061°52'710.6
2017-Oct-02 03:21N 16°29' W 061°53'410.3
2017-Oct-02 03:00N 16°33' W 061°53'35 6.1
2017-Oct-01 21:19N 17°07' W 061°51'0 0.0
2017-Oct-01 11:19N 17°07' W 061°51'0 0.0
2017-Oct-01 10:58N 17°07' W 061°51'0 0.0
2017-Oct-01 10:28N 17°07' W 061°51'0 0.0
2017-Oct-01 09:58N 17°07' W 061°51'0 0.0
2017-Oct-01 09:28N 17°07' W 061°51'0 0.0
2017-Oct-01 08:58N 17°07' W 061°51'  
2017-Sep-27 09:11N 15°52' W 061°43'710.2
2017-Sep-27 08:28N 15°58' W 061°46'2912.2
2017-Sep-27 06:04N 16°26' W 061°56'412.4
2017-Sep-27 05:46N 16°30' W 061°56'312.6
2017-Sep-27 05:30N 16°33' W 061°56'612.8
2017-Sep-27 05:01N 16°39' W 061°56'612.5
2017-Sep-27 04:31N 16°45' W 061°56'612.8
2017-Sep-27 04:01N 16°52' W 061°57'713.1
2017-Sep-27 03:31N 16°58' W 061°57'713.1
2017-Sep-27 03:01N 17°05' W 061°57'510.7
2017-Sep-27 02:30N 17°08' W 061°53'1 2.5
2017-Sep-27 01:58N 17°07' W 061°51'0 0.0
2017-Sep-27 01:28N 17°07' W 061°51'0 0.0
2017-Sep-27 00:58N 17°07' W 061°51'0 0.0
2017-Sep-27 00:28N 17°07' W 061°51'0 0.0
2017-Sep-26 23:58N 17°07' W 061°51'0 0.0
2017-Sep-26 23:28N 17°07' W 061°51'0 0.0
2017-Sep-26 22:58N 17°07' W 061°51'0 0.0
2017-Sep-26 22:28N 17°07' W 061°51'0 0.0
2017-Sep-26 21:58N 17°07' W 061°51'0 0.0
2017-Sep-26 21:28N 17°07' W 061°51'0 0.0
2017-Sep-26 20:58N 17°07' W 061°51'0 0.0
2017-Sep-26 20:28N 17°07' W 061°51'0 0.0
2017-Sep-26 19:58N 17°07' W 061°51'0 0.0
2017-Sep-26 19:28N 17°07' W 061°51'0 0.0
2017-Sep-26 18:58N 17°07' W 061°51'0 0.0
2017-Sep-26 18:28N 17°07' W 061°51'0 0.0
2017-Sep-26 17:58N 17°07' W 061°51'0 0.0
2017-Sep-26 17:28N 17°07' W 061°51'0 0.0
2017-Sep-26 16:58N 17°07' W 061°51'0 0.0
2017-Sep-26 16:28N 17°07' W 061°51'0 0.0
2017-Sep-26 15:58N 17°07' W 061°51'0 0.0
2017-Sep-26 15:28N 17°07' W 061°51'0 0.0
2017-Sep-26 14:58N 17°07' W 061°51'0 0.0
2017-Sep-26 14:28N 17°07' W 061°51'0 0.0
2017-Sep-26 13:58N 17°07' W 061°51'0 0.0
2017-Sep-26 13:28N 17°07' W 061°51'0 0.0
2017-Sep-26 12:58N 17°07' W 061°51'0 0.0
2017-Sep-26 12:31N 17°07' W 061°51'0 0.5
2017-Sep-26 12:01N 17°07' W 061°52'3 5.8
2017-Sep-26 11:31N 17°09' W 061°54'3 5.1
2017-Sep-26 11:01N 17°10' W 061°56'4 7.8
2017-Sep-26 10:31N 17°12' W 061°60'4 7.9
2017-Sep-26 10:01N 17°15' W 062°03'4 8.0
2017-Sep-26 09:31N 17°17' W 062°07'4 8.1
2017-Sep-26 09:01N 17°20' W 062°10'4 8.4
2017-Sep-26 08:31N 17°22' W 062°14'4 8.3
2017-Sep-26 08:01N 17°25' W 062°17'5 9.0
2017-Sep-26 07:31N 17°27' W 062°21'510.2
2017-Sep-26 07:00N 17°30' W 062°25'62 2.8
2017-Sep-25 08:33N 16°30' W 062°38'813.2
2017-Sep-25 07:58N 16°22' W 062°36'6812.6
2017-Sep-25 02:31N 15°34' W 061°46'513.6
2017-Sep-25 02:10N 15°32' W 061°41'213.9
2017-Sep-25 01:59N 15°30' W 061°39'10 0.7
2017-Sep-24 12:46N 15°40' W 061°40'311.5
2017-Sep-24 12:29N 15°43' W 061°42'611.3
2017-Sep-24 11:56N 15°48' W 061°46'3111.0
2017-Sep-24 09:07N 16°17' W 061°56'112.2
2017-Sep-24 09:00N 16°19' W 061°56'612.2
2017-Sep-24 08:30N 16°25' W 061°56'611.6
2017-Sep-24 08:00N 16°31' W 061°56'510.9
2017-Sep-24 07:30N 16°36' W 061°56'510.7
2017-Sep-24 07:00N 16°41' W 061°57'611.2
2017-Sep-24 06:30N 16°47' W 061°57'611.2
2017-Sep-24 06:00N 16°52' W 061°57'510.9
2017-Sep-24 05:30N 16°58' W 061°57'611.2
2017-Sep-24 05:00N 17°04' W 061°57'5 9.7
2017-Sep-24 04:30N 17°08' W 061°55'3 6.3
2017-Sep-24 04:00N 17°08' W 061°51'0 0.0
2017-Sep-24 03:28N 17°08' W 061°51'0 0.0
2017-Sep-24 03:00N 17°08' W 061°51'0 0.0
2017-Sep-24 02:30N 17°08' W 061°51'0 0.0
2017-Sep-24 02:00N 17°08' W 061°51'0 0.0
2017-Sep-24 01:30N 17°08' W 061°51'0 0.0
2017-Sep-24 01:01N 17°08' W 061°51'0 0.0
2017-Sep-24 00:30N 17°08' W 061°51'0 0.0
2017-Sep-24 00:00N 17°08' W 061°51'0 0.0
2017-Sep-23 23:30N 17°08' W 061°51'0 0.0
2017-Sep-23 23:00N 17°08' W 061°51'0 0.0
2017-Sep-23 22:30N 17°08' W 061°51'0 0.0
2017-Sep-23 22:00N 17°08' W 061°51'0 0.0
2017-Sep-23 21:30N 17°08' W 061°51'0 0.0
2017-Sep-23 21:00N 17°08' W 061°51'0 0.0
2017-Sep-23 20:30N 17°08' W 061°51'0 0.0
2017-Sep-23 20:00N 17°08' W 061°51'  
Track history (hours):
 
Tides and Currents Weather Stations Pressure Air Temp Water Temp Dewpoint Dewpoint Depression Visibility Wind Speed Wind Dir Waves Ship Positions

HNLMS Pelikaan

Last reported at 2017-Oct-02 04:32 UTC. Time now 2017-Oct-17 13:12 UTC.
Position N 16°17' W 061°52'.
Warning: this ship's position is 15 days out of date.

Length 65 m.

Type: Military. MMSI: 244362000.

Date/timePositionNaut miles runAvg speedWind from/ knotsBaromVisibWave heightAir tempDewpointWater temp
2017-Oct-02 04:32N 16°17' W 061°52'2 8.2
2017-Oct-02 04:19N 16°19' W 061°52'310.7
2017-Oct-02 04:01N 16°22' W 061°52'710.6
2017-Oct-02 03:21N 16°29' W 061°53'410.3
2017-Oct-02 03:00N 16°33' W 061°53'35 6.1
2017-Oct-01 21:19N 17°07' W 061°51'0 0.0
2017-Oct-01 11:19N 17°07' W 061°51'0 0.0
2017-Oct-01 10:58N 17°07' W 061°51'0 0.0
2017-Oct-01 10:28N 17°07' W 061°51'0 0.0
2017-Oct-01 09:58N 17°07' W 061°51'0 0.0
2017-Oct-01 09:28N 17°07' W 061°51'0 0.0
2017-Oct-01 08:58N 17°07' W 061°51'  
2017-Sep-27 09:11N 15°52' W 061°43'710.2
2017-Sep-27 08:28N 15°58' W 061°46'2912.2
2017-Sep-27 06:04N 16°26' W 061°56'412.4
2017-Sep-27 05:46N 16°30' W 061°56'312.6
2017-Sep-27 05:30N 16°33' W 061°56'612.8
2017-Sep-27 05:01N 16°39' W 061°56'612.5
2017-Sep-27 04:31N 16°45' W 061°56'612.8
2017-Sep-27 04:01N 16°52' W 061°57'713.1
2017-Sep-27 03:31N 16°58' W 061°57'713.1
2017-Sep-27 03:01N 17°05' W 061°57'510.7
2017-Sep-27 02:30N 17°08' W 061°53'1 2.5
2017-Sep-27 01:58N 17°07' W 061°51'0 0.0
2017-Sep-27 01:28N 17°07' W 061°51'0 0.0
2017-Sep-27 00:58N 17°07' W 061°51'0 0.0
2017-Sep-27 00:28N 17°07' W 061°51'0 0.0
2017-Sep-26 23:58N 17°07' W 061°51'0 0.0
2017-Sep-26 23:28N 17°07' W 061°51'0 0.0
2017-Sep-26 22:58N 17°07' W 061°51'0 0.0
2017-Sep-26 22:28N 17°07' W 061°51'0 0.0
2017-Sep-26 21:58N 17°07' W 061°51'0 0.0
2017-Sep-26 21:28N 17°07' W 061°51'0 0.0
2017-Sep-26 20:58N 17°07' W 061°51'0 0.0
2017-Sep-26 20:28N 17°07' W 061°51'0 0.0
2017-Sep-26 19:58N 17°07' W 061°51'0 0.0
2017-Sep-26 19:28N 17°07' W 061°51'0 0.0
2017-Sep-26 18:58N 17°07' W 061°51'0 0.0
2017-Sep-26 18:28N 17°07' W 061°51'0 0.0
2017-Sep-26 17:58N 17°07' W 061°51'0 0.0
2017-Sep-26 17:28N 17°07' W 061°51'0 0.0
2017-Sep-26 16:58N 17°07' W 061°51'0 0.0
2017-Sep-26 16:28N 17°07' W 061°51'0 0.0
2017-Sep-26 15:58N 17°07' W 061°51'0 0.0
2017-Sep-26 15:28N 17°07' W 061°51'0 0.0
2017-Sep-26 14:58N 17°07' W 061°51'0 0.0
2017-Sep-26 14:28N 17°07' W 061°51'0 0.0
2017-Sep-26 13:58N 17°07' W 061°51'0 0.0
2017-Sep-26 13:28N 17°07' W 061°51'0 0.0
2017-Sep-26 12:58N 17°07' W 061°51'0 0.0
2017-Sep-26 12:31N 17°07' W 061°51'0 0.5
2017-Sep-26 12:01N 17°07' W 061°52'3 5.8
2017-Sep-26 11:31N 17°09' W 061°54'3 5.1
2017-Sep-26 11:01N 17°10' W 061°56'4 7.8
2017-Sep-26 10:31N 17°12' W 061°60'4 7.9
2017-Sep-26 10:01N 17°15' W 062°03'4 8.0
2017-Sep-26 09:31N 17°17' W 062°07'4 8.1
2017-Sep-26 09:01N 17°20' W 062°10'4 8.4
2017-Sep-26 08:31N 17°22' W 062°14'4 8.3
2017-Sep-26 08:01N 17°25' W 062°17'5 9.0
2017-Sep-26 07:31N 17°27' W 062°21'510.2
2017-Sep-26 07:00N 17°30' W 062°25'62 2.8
2017-Sep-25 08:33N 16°30' W 062°38'813.2
2017-Sep-25 07:58N 16°22' W 062°36'6812.6
2017-Sep-25 02:31N 15°34' W 061°46'513.6
2017-Sep-25 02:10N 15°32' W 061°41'213.9
2017-Sep-25 01:59N 15°30' W 061°39'10 0.7
2017-Sep-24 12:46N 15°40' W 061°40'311.5
2017-Sep-24 12:29N 15°43' W 061°42'611.3
2017-Sep-24 11:56N 15°48' W 061°46'3111.0
2017-Sep-24 09:07N 16°17' W 061°56'112.2
2017-Sep-24 09:00N 16°19' W 061°56'612.2
2017-Sep-24 08:30N 16°25' W 061°56'611.6
2017-Sep-24 08:00N 16°31' W 061°56'510.9
2017-Sep-24 07:30N 16°36' W 061°56'510.7
2017-Sep-24 07:00N 16°41' W 061°57'611.2
2017-Sep-24 06:30N 16°47' W 061°57'611.2
2017-Sep-24 06:00N 16°52' W 061°57'510.9
2017-Sep-24 05:30N 16°58' W 061°57'611.2
2017-Sep-24 05:00N 17°04' W 061°57'5 9.7
2017-Sep-24 04:30N 17°08' W 061°55'3 6.3
2017-Sep-24 04:00N 17°08' W 061°51'0 0.0
2017-Sep-24 03:28N 17°08' W 061°51'0 0.0
2017-Sep-24 03:00N 17°08' W 061°51'0 0.0
2017-Sep-24 02:30N 17°08' W 061°51'0 0.0
2017-Sep-24 02:00N 17°08' W 061°51'0 0.0
2017-Sep-24 01:30N 17°08' W 061°51'0 0.0
2017-Sep-24 01:01N 17°08' W 061°51'0 0.0
2017-Sep-24 00:30N 17°08' W 061°51'0 0.0
2017-Sep-24 00:00N 17°08' W 061°51'0 0.0
2017-Sep-23 23:30N 17°08' W 061°51'0 0.0
2017-Sep-23 23:00N 17°08' W 061°51'0 0.0
2017-Sep-23 22:30N 17°08' W 061°51'0 0.0
2017-Sep-23 22:00N 17°08' W 061°51'0 0.0
2017-Sep-23 21:30N 17°08' W 061°51'0 0.0
2017-Sep-23 21:00N 17°08' W 061°51'0 0.0
2017-Sep-23 20:30N 17°08' W 061°51'0 0.0
2017-Sep-23 20:00N 17°08' W 061°51'  

Dump ship's entire track history